YPGV/GOV METAR and TAF weather

Enter ICAO airport designator
Station Type Date Time Source
YPGV METAR 2022/06/30 12:30 UTC NOAA

YPGV 301230Z AUTO 16009KT 9000 // BKN011 BKN019 OVC027 25/23 Q1012


Station Type Date Time Source
YPGV Decoded METAR 2022/06/30 12:30 UTC NOAA

Station name not available
Jun 30, 2022 - 08:30 AM EDT / 2022.06.30 1230 UTC
Wind: from the SSE (160 degrees) at 10 MPH (9 KT):0
Visibility: 5 mile(s):0
Sky conditions: overcast
Temperature: 77 F (25 C)
Dew Point: 73 F (23 C)
Relative Humidity: 88%
Pressure (altimeter): 29.88 in. Hg (1012 hPa)
ob: YPGV 301230Z AUTO 16009KT 9000 // BKN011 BKN019 OVC027 25/23 Q1012
cycle: 12

Station Type Date Time Source
YPGV TAF 2022/06/30 08:00 UTC NOAA

TAF
AMD YPGV 300841Z 3008/3020 14014KT 9999 -RA BKN010 OVC020
FM301700 14010KT 9999 -SHRA SCT015 OVC030 INTER 3014/3020 4000 SHRA BKN015

Example: see airport list